createdAt,value
2019-04-10T00:02:29.210Z,12.90
2019-04-10T00:04:59.156Z,10.63
2019-04-10T00:07:28.947Z,11.10
2019-04-10T00:09:59.235Z,11.00
2019-04-10T00:12:28.265Z,11.00
2019-04-10T00:14:57.046Z,11.33
2019-04-10T00:17:26.800Z,11.13
2019-04-10T00:19:56.031Z,12.33
2019-04-10T00:22:24.923Z,10.63
2019-04-10T00:24:54.579Z,10.97
2019-04-10T00:27:23.366Z,10.93
2019-04-10T00:29:52.411Z,11.53
2019-04-10T00:32:21.658Z,12.07
2019-04-10T00:34:50.514Z,11.57
2019-04-10T00:37:26.228Z,10.40
2019-04-10T00:39:50.637Z,10.40
2019-04-10T00:42:19.586Z,11.13
2019-04-10T00:44:48.115Z,10.63
2019-04-10T00:47:17.020Z,10.30
2019-04-10T00:49:46.163Z,10.53
2019-04-10T00:52:14.982Z,11.47
2019-04-10T00:54:43.745Z,11.70
2019-04-10T00:57:12.851Z,11.37
2019-04-10T00:59:42.209Z,9.93
2019-04-10T01:02:12.126Z,11.60
2019-04-10T01:04:41.086Z,10.80
2019-04-10T01:07:10.666Z,11.60
2019-04-10T01:09:39.691Z,10.77
2019-04-10T01:12:08.466Z,12.07
2019-04-10T01:14:38.062Z,11.73
2019-04-10T01:17:06.444Z,11.80
2019-04-10T01:19:34.886Z,11.80
2019-04-10T01:22:03.656Z,12.77
2019-04-10T01:24:33.356Z,11.77
2019-04-10T01:27:03.372Z,11.50
2019-04-10T01:29:31.869Z,13.03
2019-04-10T01:32:01.616Z,11.73
2019-04-10T01:34:31.564Z,11.93
2019-04-10T01:37:00.626Z,12.07
2019-04-10T01:39:30.548Z,12.13
2019-04-10T01:42:00.508Z,12.07
2019-04-10T01:44:29.671Z,12.73
2019-04-10T01:46:59.113Z,12.03
2019-04-10T01:49:27.617Z,12.87
2019-04-10T01:51:57.434Z,12.67
2019-04-10T01:54:26.960Z,12.20
2019-04-10T01:56:55.630Z,13.23
2019-04-10T01:59:26.470Z,11.93
2019-04-10T02:02:12.498Z,13.60
2019-04-10T02:04:41.757Z,12.43
2019-04-10T02:07:10.182Z,12.03
2019-04-10T02:09:39.281Z,11.83
2019-04-10T02:12:07.709Z,11.43
2019-04-10T02:14:36.416Z,12.30
2019-04-10T02:17:06.349Z,13.87
2019-04-10T02:19:36.381Z,13.20
2019-04-10T02:22:05.190Z,12.83
2019-04-10T02:24:33.997Z,14.37
2019-04-10T02:27:02.818Z,15.83
2019-04-10T02:29:31.571Z,15.47
2019-04-10T02:32:01.898Z,14.13
2019-04-10T02:34:30.816Z,12.77
2019-04-10T02:37:00.640Z,12.23
2019-04-10T02:39:37.930Z,13.53
2019-04-10T02:42:00.661Z,12.93
2019-04-10T02:44:30.629Z,11.23
2019-04-10T02:46:59.798Z,13.87
2019-04-10T02:49:28.125Z,12.57
2019-04-10T02:51:57.070Z,12.20
2019-04-10T02:54:27.075Z,13.13
2019-04-10T02:56:56.757Z,13.97
2019-04-10T02:59:27.014Z,13.27
2019-04-10T03:01:56.303Z,13.23
2019-04-10T03:04:26.733Z,14.30
2019-04-10T03:06:55.480Z,12.60
2019-04-10T03:09:40.572Z,13.37
2019-04-10T03:11:55.512Z,13.77
2019-04-10T03:14:24.460Z,13.50
2019-04-10T03:16:53.418Z,12.13
2019-04-10T03:19:22.322Z,12.50
2019-04-10T03:21:51.459Z,12.90
2019-04-10T03:24:21.262Z,14.77
2019-04-10T03:26:54.086Z,14.77
2019-04-10T03:29:22.469Z,13.30
2019-04-10T03:31:52.997Z,14.17
2019-04-10T03:34:33.450Z,12.83
2019-04-10T03:37:01.667Z,13.93
2019-04-10T03:39:33.462Z,14.53
2019-04-10T03:42:01.705Z,13.20
2019-04-10T03:44:32.458Z,13.37
2019-04-10T03:47:01.504Z,12.83
2019-04-10T03:49:30.261Z,13.30
2019-04-10T03:51:58.871Z,14.57
2019-04-10T03:54:28.046Z,14.27
2019-04-10T03:56:56.873Z,14.07
2019-04-10T03:59:26.365Z,14.03
2019-04-10T04:01:58.027Z,13.00
2019-04-10T04:04:26.341Z,10.98
2019-04-10T04:06:55.778Z,14.03
2019-04-10T04:09:24.589Z,12.10
2019-04-10T04:11:53.697Z,14.43
2019-04-10T04:14:22.128Z,13.93
2019-04-10T04:16:51.243Z,14.03
2019-04-10T04:19:20.325Z,13.70
2019-04-10T04:21:48.628Z,13.93
2019-04-10T04:24:17.840Z,14.67
2019-04-10T04:26:47.109Z,12.70
2019-04-10T04:29:18.458Z,12.87
2019-04-10T04:31:48.381Z,13.90
2019-04-10T04:34:18.379Z,12.23
2019-04-10T04:36:48.923Z,13.37
2019-04-10T04:39:23.201Z,14.60
2019-04-10T04:41:47.893Z,11.88
2019-04-10T04:44:18.001Z,13.17
2019-04-10T04:46:46.439Z,15.00
2019-04-10T04:49:15.741Z,14.23
2019-04-10T04:51:45.662Z,18.17
2019-04-10T04:54:15.046Z,22.60
2019-04-10T04:56:44.243Z,23.83
2019-04-10T04:59:12.609Z,24.17
2019-04-10T05:01:42.429Z,17.90
2019-04-10T05:04:11.797Z,21.93
2019-04-10T05:06:41.643Z,16.07
2019-04-10T05:09:11.051Z,14.80
2019-04-10T05:11:39.649Z,13.87
2019-04-10T05:14:08.101Z,13.07
2019-04-10T05:16:36.893Z,14.53
2019-04-10T05:19:05.209Z,11.07
2019-04-10T05:21:33.606Z,12.63
2019-04-10T05:24:01.922Z,12.40
2019-04-10T05:26:30.701Z,12.47
2019-04-10T05:29:00.484Z,12.37
2019-04-10T05:31:29.455Z,12.58
2019-04-10T05:33:58.197Z,11.60
2019-04-10T05:36:26.957Z,11.97
2019-04-10T05:38:55.269Z,10.87
2019-04-10T05:41:24.378Z,11.87
2019-04-10T05:43:53.398Z,12.07
2019-04-10T05:46:22.977Z,12.20
2019-04-10T05:48:52.463Z,13.17
2019-04-10T05:51:21.411Z,11.77
2019-04-10T05:53:52.824Z,12.90
2019-04-10T05:56:20.780Z,10.53
2019-04-10T05:58:49.601Z,12.03
2019-04-10T06:01:29.974Z,9.93
2019-04-10T06:03:49.221Z,10.87
2019-04-10T06:06:17.521Z,11.20
2019-04-10T06:08:46.967Z,10.57
2019-04-10T06:11:17.152Z,10.17
2019-04-10T06:13:46.055Z,8.77
2019-04-10T06:16:15.303Z,10.03
2019-04-10T06:18:45.080Z,10.07
2019-04-10T06:21:14.739Z,10.83
2019-04-10T06:23:43.685Z,10.37
2019-04-10T06:26:12.755Z,9.37
2019-04-10T06:28:41.989Z,10.60
2019-04-10T06:31:11.041Z,10.23
2019-04-10T06:33:40.295Z,9.60
2019-04-10T06:36:09.246Z,10.13
2019-04-10T06:38:37.617Z,9.53
2019-04-10T06:41:06.274Z,8.57
2019-04-10T06:43:35.181Z,9.27
2019-04-10T06:46:04.446Z,9.27
2019-04-10T06:48:34.218Z,9.93
2019-04-10T06:51:04.039Z,8.90
2019-04-10T06:53:33.217Z,8.53
2019-04-10T06:56:02.903Z,8.97
2019-04-10T06:58:31.938Z,7.97
2019-04-10T07:01:01.830Z,8.47
2019-04-10T07:03:46.981Z,8.20
2019-04-10T07:06:09.614Z,8.93
2019-04-10T07:08:32.183Z,9.50
2019-04-10T07:11:06.035Z,9.90
2019-04-10T07:13:32.238Z,9.37
2019-04-10T07:16:02.098Z,8.73
2019-04-10T07:18:31.176Z,9.73
2019-04-10T07:21:01.662Z,9.57
2019-04-10T07:23:31.988Z,7.97
2019-04-10T07:26:01.850Z,9.47
2019-04-10T07:28:30.713Z,9.17
2019-04-10T07:31:04.653Z,9.57
2019-04-10T07:33:30.860Z,9.43
2019-04-10T07:36:04.314Z,9.93
2019-04-10T07:38:30.874Z,10.30
2019-04-10T07:41:00.058Z,8.63
2019-04-10T07:43:29.485Z,8.97
2019-04-10T07:45:58.925Z,8.77
2019-04-10T07:48:27.694Z,9.53
2019-04-10T07:50:57.044Z,10.10
2019-04-10T07:53:26.805Z,8.40
2019-04-10T07:56:02.838Z,9.57
2019-04-10T07:58:26.992Z,9.03
2019-04-10T08:00:56.733Z,9.43
2019-04-10T08:03:25.807Z,10.03
2019-04-10T08:05:54.775Z,8.73
2019-04-10T08:08:23.678Z,9.27
2019-04-10T08:10:53.010Z,9.00
2019-04-10T08:13:22.513Z,8.77
2019-04-10T08:15:52.246Z,9.40
2019-04-10T08:18:21.208Z,8.70
2019-04-10T08:20:50.889Z,9.63
2019-04-10T08:23:21.795Z,7.93
2019-04-10T08:25:51.670Z,7.67
2019-04-10T08:28:21.941Z,9.20
2019-04-10T08:30:50.941Z,8.43
2019-04-10T08:33:19.778Z,9.07
2019-04-10T08:35:49.508Z,9.50
2019-04-10T08:38:18.493Z,9.00
2019-04-10T08:40:48.226Z,8.70
2019-04-10T08:43:17.132Z,8.20
2019-04-10T08:45:50.027Z,8.87
2019-04-10T08:48:19.454Z,9.40
2019-04-10T08:50:48.254Z,8.33
2019-04-10T08:53:18.369Z,8.60
2019-04-10T08:55:48.393Z,8.13
2019-04-10T08:58:17.273Z,8.90
2019-04-10T09:00:46.943Z,8.93
2019-04-10T09:03:16.927Z,8.90
2019-04-10T09:05:45.524Z,9.33
2019-04-10T09:08:14.975Z,7.70
2019-04-10T09:10:44.749Z,8.17
2019-04-10T09:13:14.642Z,9.30
2019-04-10T09:15:43.417Z,6.67
2019-04-10T09:18:12.854Z,8.50
2019-04-10T09:20:42.483Z,9.17
2019-04-10T09:23:28.933Z,7.60
2019-04-10T09:25:42.037Z,8.93
2019-04-10T09:28:10.786Z,8.83
2019-04-10T09:30:40.685Z,7.97
2019-04-10T09:33:21.239Z,7.67
2019-04-10T09:35:40.623Z,9.43
2019-04-10T09:38:10.493Z,8.43
2019-04-10T09:40:40.291Z,6.47
2019-04-10T09:43:09.424Z,8.43
2019-04-10T09:45:39.209Z,8.10
2019-04-10T09:48:08.526Z,8.73
2019-04-10T09:50:37.535Z,8.10
2019-04-10T09:53:06.476Z,7.67
2019-04-10T09:55:36.306Z,7.67
2019-04-10T09:58:05.274Z,8.63
2019-04-10T10:00:34.318Z,7.73
2019-04-10T10:03:03.502Z,7.40
2019-04-10T10:05:32.717Z,8.53
2019-04-10T10:08:02.131Z,8.43
2019-04-10T10:10:34.001Z,7.47
2019-04-10T10:13:01.614Z,7.87
2019-04-10T10:15:31.344Z,7.57
2019-04-10T10:18:01.233Z,8.50
2019-04-10T10:20:30.741Z,8.50
2019-04-10T10:22:59.703Z,8.03
2019-04-10T10:25:28.949Z,8.40
2019-04-10T10:27:58.567Z,8.60
2019-04-10T10:30:27.392Z,8.73
2019-04-10T10:32:57.182Z,7.23
2019-04-10T10:35:26.971Z,7.73
2019-04-10T10:37:56.877Z,8.63
2019-04-10T10:40:25.805Z,7.87
2019-04-10T10:42:54.113Z,8.37
2019-04-10T10:45:23.029Z,8.23
2019-04-10T10:47:52.657Z,6.97
2019-04-10T10:50:22.146Z,7.53
2019-04-10T10:52:52.122Z,7.80
2019-04-10T10:55:21.613Z,7.77
2019-04-10T10:57:51.213Z,7.70
2019-04-10T11:00:21.619Z,8.33
2019-04-10T11:02:51.973Z,8.00
2019-04-10T11:05:21.198Z,8.03
2019-04-10T11:07:51.524Z,7.07
2019-04-10T11:10:24.081Z,7.40
2019-04-10T11:12:52.182Z,7.63
2019-04-10T11:15:21.919Z,7.77
2019-04-10T11:17:51.944Z,7.73
2019-04-10T11:20:20.907Z,7.57
2019-04-10T11:22:49.736Z,6.70
2019-04-10T11:25:19.515Z,8.27
2019-04-10T11:27:50.083Z,6.83
2019-04-10T11:30:20.564Z,7.03
2019-04-10T11:32:50.607Z,6.90
2019-04-10T11:35:19.220Z,6.60
2019-04-10T11:37:51.362Z,7.27
2019-04-10T11:40:18.171Z,6.87
2019-04-10T11:42:47.626Z,5.40
2019-04-10T11:45:17.739Z,6.43
2019-04-10T11:47:47.551Z,6.40
2019-04-10T11:50:18.681Z,7.60
2019-04-10T11:52:52.409Z,6.93
2019-04-10T11:55:21.351Z,7.00
2019-04-10T11:57:49.171Z,6.37
2019-04-10T12:00:27.238Z,5.87
2019-04-10T12:02:57.186Z,6.00
2019-04-10T12:05:28.713Z,7.17
2019-04-10T12:12:55.641Z,6.87
2019-04-10T12:15:24.024Z,6.73
2019-04-10T12:17:53.865Z,6.83
2019-04-10T12:20:22.968Z,6.73
2019-04-10T12:22:52.435Z,8.57
2019-04-10T12:25:21.391Z,7.00
2019-04-10T12:27:50.145Z,8.30
2019-04-10T12:30:20.350Z,7.53
2019-04-10T12:32:49.385Z,7.23
2019-04-10T12:35:18.224Z,7.20
2019-04-10T12:37:57.285Z,6.70
2019-04-10T12:40:17.854Z,7.60
2019-04-10T12:42:46.225Z,6.80
2019-04-10T12:45:15.793Z,6.13
2019-04-10T12:47:44.175Z,7.20
2019-04-10T12:50:14.192Z,6.97
2019-04-10T12:52:43.273Z,7.00
2019-04-10T12:55:12.640Z,7.20
2019-04-10T12:57:41.470Z,7.10
2019-04-10T13:00:11.788Z,7.07
2019-04-10T13:02:40.814Z,7.23
2019-04-10T13:05:11.319Z,6.40
2019-04-10T13:07:39.995Z,6.87
2019-04-10T13:10:09.089Z,7.23
2019-04-10T13:12:37.714Z,6.93
2019-04-10T13:15:07.456Z,7.07
2019-04-10T13:17:36.105Z,6.67
2019-04-10T13:20:09.285Z,6.50
2019-04-10T13:22:38.893Z,7.07
2019-04-10T13:25:08.251Z,6.23
2019-04-10T13:27:37.090Z,6.93
2019-04-10T13:30:11.026Z,6.33
2019-04-10T13:32:38.821Z,7.40
2019-04-10T13:35:08.128Z,6.90
2019-04-10T13:37:41.363Z,6.40
2019-04-10T13:40:11.227Z,6.90
2019-04-10T13:42:41.122Z,5.93
2019-04-10T13:45:11.093Z,6.50
2019-04-10T13:47:40.885Z,6.80
2019-04-10T13:50:11.014Z,7.50
2019-04-10T13:52:42.642Z,7.10
2019-04-10T13:55:12.045Z,6.40
2019-04-10T13:57:40.835Z,6.80
2019-04-10T14:00:18.216Z,5.97
2019-04-10T14:02:47.897Z,6.77
2019-04-10T14:05:17.902Z,6.50
2019-04-10T14:07:46.770Z,5.53
2019-04-10T14:10:16.661Z,6.10
2019-04-10T14:12:45.515Z,5.53
2019-04-10T14:15:14.353Z,6.07
2019-04-10T14:17:43.896Z,5.80
2019-04-10T14:20:15.239Z,5.80
2019-04-10T14:22:54.446Z,5.53
2019-04-10T14:25:29.910Z,5.20
2019-04-10T14:27:58.667Z,5.33
2019-04-10T14:30:35.615Z,6.20
2019-04-10T14:33:05.081Z,5.27
2019-04-10T14:35:33.901Z,5.50
2019-04-10T14:38:03.084Z,6.37
2019-04-10T14:40:32.506Z,5.77
2019-04-10T14:43:01.461Z,6.23
2019-04-10T14:45:30.371Z,5.47
2019-04-10T14:48:00.130Z,6.20
2019-04-10T14:50:29.457Z,5.40
2019-04-10T14:52:59.188Z,5.83
2019-04-10T14:55:29.165Z,6.43
2019-04-10T14:57:59.142Z,5.20
2019-04-10T15:00:39.197Z,5.73
2019-04-10T15:03:08.532Z,5.00
2019-04-10T15:05:45.524Z,6.23
2019-04-10T15:08:09.159Z,6.10
2019-04-10T15:10:38.098Z,6.03
2019-04-10T15:13:12.713Z,4.80
2019-04-10T15:15:38.624Z,5.77
2019-04-10T15:18:08.772Z,4.93
2019-04-10T15:20:37.671Z,5.50
2019-04-10T15:23:07.765Z,5.47
2019-04-10T15:25:37.467Z,5.37
2019-04-10T15:28:06.389Z,4.90
2019-04-10T15:30:36.877Z,5.17
2019-04-10T15:33:06.695Z,5.30
2019-04-10T15:35:41.821Z,5.40
2019-04-10T15:38:11.734Z,5.30
2019-04-10T15:40:40.702Z,6.60
2019-04-10T15:43:10.644Z,4.23
2019-04-10T15:45:39.996Z,4.87
2019-04-10T15:48:09.000Z,5.43
2019-04-10T15:50:37.842Z,5.57
2019-04-10T15:53:07.566Z,5.10
2019-04-10T15:55:36.418Z,5.07
2019-04-10T15:58:06.690Z,5.60
2019-04-10T16:00:35.733Z,5.20
2019-04-10T16:03:04.989Z,5.90
2019-04-10T16:05:34.125Z,5.60
2019-04-10T16:08:03.069Z,5.27
2019-04-10T16:10:43.303Z,4.93
2019-04-10T16:13:38.783Z,5.50
2019-04-10T16:16:25.507Z,5.50
2019-04-10T16:19:02.126Z,6.23
2019-04-10T16:21:31.860Z,5.43
2019-04-10T16:24:04.636Z,5.83
2019-04-10T16:26:33.617Z,4.50
2019-04-10T16:29:02.356Z,5.37
2019-04-10T16:31:31.901Z,5.03
2019-04-10T16:34:00.919Z,4.93
2019-04-10T16:36:29.766Z,5.63
2019-04-10T16:38:58.273Z,5.03
2019-04-10T16:41:29.520Z,6.40
2019-04-10T16:43:57.513Z,5.17
2019-04-10T16:46:26.412Z,6.07
2019-04-10T16:48:56.032Z,5.80
2019-04-10T16:51:25.922Z,6.47
2019-04-10T16:53:55.848Z,6.20
2019-04-10T16:56:25.445Z,6.07
2019-04-10T16:58:54.640Z,6.90
2019-04-10T17:01:23.567Z,7.23
2019-04-10T17:03:52.410Z,6.57
2019-04-10T17:06:21.907Z,7.23
2019-04-10T17:08:50.677Z,6.63
2019-04-10T17:11:19.534Z,6.13
2019-04-10T17:13:48.912Z,6.50
2019-04-10T17:16:17.865Z,5.93
2019-04-10T17:18:46.246Z,6.00
2019-04-10T17:21:15.666Z,6.03
2019-04-10T17:23:44.877Z,5.97
2019-04-10T17:26:14.885Z,6.07
2019-04-10T17:28:44.865Z,6.50
2019-04-10T17:31:14.333Z,6.17
2019-04-10T17:33:43.900Z,7.20
2019-04-10T17:36:13.017Z,6.50
2019-04-10T17:38:42.806Z,6.17
2019-04-10T17:41:12.053Z,7.30
2019-04-10T17:43:41.310Z,7.50
2019-04-10T17:46:11.075Z,7.33
2019-04-10T17:48:40.326Z,7.47
2019-04-10T17:51:09.946Z,8.70
2019-04-10T17:53:39.998Z,7.13
2019-04-10T17:56:09.042Z,6.80
2019-04-10T17:58:37.975Z,7.33
2019-04-10T18:01:10.365Z,7.73
2019-04-10T18:03:47.227Z,11.80
2019-04-10T18:06:10.970Z,9.40
2019-04-10T18:08:41.056Z,9.03
2019-04-10T18:11:09.551Z,29.47
2019-04-10T18:13:38.518Z,10.20
2019-04-10T18:16:08.481Z,9.13
2019-04-10T18:18:37.974Z,7.53
2019-04-10T18:21:06.917Z,8.93
2019-04-10T18:23:35.686Z,7.17
2019-04-10T18:26:04.645Z,6.33
2019-04-10T18:28:34.958Z,7.67
2019-04-10T18:31:04.925Z,7.23
2019-04-10T18:33:34.327Z,6.30
2019-04-10T18:36:03.369Z,6.13
2019-04-10T18:38:31.686Z,6.03
2019-04-10T18:41:03.769Z,5.60
2019-04-10T18:43:31.949Z,6.43
2019-04-10T18:46:08.829Z,6.10
2019-04-10T18:48:30.443Z,5.53
2019-04-10T18:50:59.395Z,5.93
2019-04-10T18:53:28.937Z,6.50
2019-04-10T18:55:57.826Z,6.33
2019-04-10T18:58:29.721Z,6.40
2019-04-10T19:01:28.786Z,6.10
2019-04-10T19:04:14.663Z,6.47
2019-04-10T19:06:56.557Z,6.40
2019-04-10T19:09:28.693Z,6.77
2019-04-10T19:11:57.805Z,7.00
2019-04-10T19:14:26.637Z,6.87
2019-04-10T19:16:55.530Z,6.90
2019-04-10T19:19:24.277Z,7.17
2019-04-10T19:21:53.777Z,6.57
2019-04-10T19:24:24.310Z,6.40
2019-04-10T19:26:53.800Z,6.40
2019-04-10T19:29:23.456Z,7.07
2019-04-10T19:31:56.154Z,6.43
2019-04-10T19:34:25.397Z,6.73
2019-04-10T19:36:54.467Z,5.80
2019-04-10T19:39:24.430Z,6.60
2019-04-10T19:41:54.296Z,6.47
2019-04-10T19:44:23.913Z,6.73
2019-04-10T19:46:53.576Z,6.97
2019-04-10T19:49:22.497Z,5.43
2019-04-10T19:51:51.542Z,5.97
2019-04-10T19:54:22.096Z,6.00
2019-04-10T19:56:51.014Z,6.37
2019-04-10T19:59:20.767Z,6.47
2019-04-10T20:01:50.671Z,6.10
2019-04-10T20:04:20.652Z,6.50
2019-04-10T20:06:49.541Z,6.33
2019-04-10T20:09:18.298Z,6.37
2019-04-10T20:11:52.624Z,6.57
2019-04-10T20:14:17.838Z,5.70
2019-04-10T20:16:47.749Z,6.63
2019-04-10T20:19:17.164Z,8.50
2019-04-10T20:21:46.133Z,16.33
2019-04-10T20:24:14.923Z,17.17
2019-04-10T20:26:43.754Z,18.03
2019-04-10T20:29:12.981Z,9.87
2019-04-10T20:31:41.864Z,6.87
2019-04-10T20:34:11.562Z,10.10
2019-04-10T20:36:41.528Z,9.53
2019-04-10T20:39:12.887Z,8.60
2019-04-10T20:41:49.448Z,8.20
2019-04-10T20:44:12.602Z,7.93
2019-04-10T20:46:42.390Z,7.63
2019-04-10T20:49:12.114Z,7.23
2019-04-10T20:51:41.994Z,7.17
2019-04-10T20:54:10.933Z,6.90
2019-04-10T20:56:40.955Z,6.77
2019-04-10T20:59:10.001Z,6.73
2019-04-10T21:01:39.293Z,7.00
2019-04-10T21:04:09.214Z,6.10
2019-04-10T21:06:42.355Z,7.70
2019-04-10T21:09:12.025Z,6.73
2019-04-10T21:11:40.349Z,6.37
2019-04-10T21:14:09.292Z,6.87
2019-04-10T21:16:38.305Z,6.43
2019-04-10T21:19:09.447Z,8.13
2019-04-10T21:21:39.021Z,8.17
2019-04-10T21:24:09.169Z,6.73
2019-04-10T21:26:38.827Z,6.83
2019-04-10T21:29:11.038Z,7.43
2019-04-10T21:31:55.414Z,7.27
2019-04-10T21:34:28.721Z,5.57
2019-04-10T21:36:57.723Z,6.30
2019-04-10T21:39:27.696Z,6.70
2019-04-10T21:42:09.327Z,5.83
2019-04-10T21:44:27.282Z,6.10
2019-04-10T21:46:57.105Z,6.37
2019-04-10T21:49:26.225Z,6.60
2019-04-10T21:51:55.823Z,6.90
2019-04-10T21:54:24.990Z,7.03
2019-04-10T21:56:53.762Z,6.27
2019-04-10T21:59:22.734Z,6.17
2019-04-10T22:01:52.815Z,5.73
2019-04-10T22:04:23.119Z,5.53
2019-04-10T22:07:24.439Z,6.33
2019-04-10T22:10:12.276Z,4.93
2019-04-10T22:12:46.951Z,5.87
2019-04-10T22:15:22.499Z,6.23
2019-04-10T22:17:52.389Z,6.77
2019-04-10T22:20:21.427Z,5.50
2019-04-10T22:22:51.303Z,5.70
2019-04-10T22:25:21.492Z,5.23
2019-04-10T22:27:50.693Z,5.57
2019-04-10T22:30:19.169Z,5.47
2019-04-10T22:32:49.226Z,6.65
2019-04-10T22:35:17.664Z,7.65
2019-04-10T22:37:46.481Z,5.78
2019-04-10T22:40:15.399Z,5.97
2019-04-10T22:42:46.700Z,4.83
2019-04-10T22:45:27.930Z,6.23
2019-04-10T22:47:56.749Z,5.53
2019-04-10T22:50:25.076Z,5.72
2019-04-10T22:52:54.984Z,5.30
2019-04-10T22:55:23.949Z,5.97
2019-04-10T22:57:52.735Z,5.97
2019-04-10T23:00:33.515Z,5.47
2019-04-10T23:03:03.115Z,5.60
2019-04-10T23:05:32.478Z,5.00
2019-04-10T23:08:01.387Z,5.53
2019-04-10T23:10:30.236Z,6.47
2019-04-10T23:13:02.918Z,5.62
2019-04-10T23:15:29.633Z,5.67
2019-04-10T23:17:59.274Z,5.53
2019-04-10T23:20:28.174Z,6.80
2019-04-10T23:22:56.941Z,7.37
2019-04-10T23:25:26.581Z,6.58
2019-04-10T23:27:56.389Z,6.12
2019-04-10T23:30:25.317Z,5.97
2019-04-10T23:32:55.364Z,5.05
2019-04-10T23:35:25.335Z,5.83
2019-04-10T23:37:55.113Z,5.50
2019-04-10T23:40:25.083Z,5.60
2019-04-10T23:43:05.824Z,6.12
2019-04-10T23:45:24.546Z,4.75
2019-04-10T23:47:53.345Z,5.45
2019-04-10T23:50:22.113Z,6.62
2019-04-10T23:52:51.890Z,6.10
2019-04-10T23:55:21.811Z,6.80
2019-04-10T23:57:51.683Z,5.15
